sensor_id;sensor_type;location;lat;lon;timestamp;pressure;altitude;pressure_sealevel;temperature;humidity
77454;BME280;66538;53.150;18.160;2023-04-03T00:00:31;102484.27;;;1.20;70.24
77454;BME280;66538;53.150;18.160;2023-04-03T00:03:14;102484.05;;;1.25;70.15
77454;BME280;66538;53.150;18.160;2023-04-03T00:05:41;102481.67;;;1.28;70.28
77454;BME280;66538;53.150;18.160;2023-04-03T00:08:08;102482.52;;;1.32;70.15
77454;BME280;66538;53.150;18.160;2023-04-03T00:10:36;102480.34;;;1.36;69.99
77454;BME280;66538;53.150;18.160;2023-04-03T00:13:04;102481.17;;;1.38;70.11
77454;BME280;66538;53.150;18.160;2023-04-03T00:15:32;102478.28;;;1.40;70.00
77454;BME280;66538;53.150;18.160;2023-04-03T00:17:59;102480.22;;;1.42;70.01
77454;BME280;66538;53.150;18.160;2023-04-03T00:20:25;102474.50;;;1.42;70.11
77454;BME280;66538;53.150;18.160;2023-04-03T00:22:53;102478.27;;;1.42;69.84
77454;BME280;66538;53.150;18.160;2023-04-03T00:25:21;102476.70;;;1.40;69.76
77454;BME280;66538;53.150;18.160;2023-04-03T00:27:48;102475.37;;;1.39;69.73
77454;BME280;66538;53.150;18.160;2023-04-03T00:30:17;102471.11;;;1.35;69.80
77454;BME280;66538;53.150;18.160;2023-04-03T00:32:44;102474.23;;;1.35;69.83
77454;BME280;66538;53.150;18.160;2023-04-03T00:35:11;102470.88;;;1.31;69.83
77454;BME280;66538;53.150;18.160;2023-04-03T00:37:38;102470.81;;;1.32;69.97
77454;BME280;66538;53.150;18.160;2023-04-03T00:40:05;102474.59;;;1.30;69.72
77454;BME280;66538;53.150;18.160;2023-04-03T00:42:32;102474.02;;;1.28;70.03
77454;BME280;66538;53.150;18.160;2023-04-03T00:47:27;102475.20;;;1.21;69.93
77454;BME280;66538;53.150;18.160;2023-04-03T00:49:54;102472.63;;;1.17;70.06
77454;BME280;66538;53.150;18.160;2023-04-03T00:52:25;102476.54;;;1.12;70.35
77454;BME280;66538;53.150;18.160;2023-04-03T00:54:57;102477.30;;;1.07;70.19
77454;BME280;66538;53.150;18.160;2023-04-03T00:57:24;102477.89;;;1.01;70.58
77454;BME280;66538;53.150;18.160;2023-04-03T00:59:57;102482.13;;;0.97;70.27
77454;BME280;66538;53.150;18.160;2023-04-03T01:02:25;102484.02;;;0.92;70.58
77454;BME280;66538;53.150;18.160;2023-04-03T01:04:52;102482.56;;;0.88;70.47
77454;BME280;66538;53.150;18.160;2023-04-03T01:07:22;102479.08;;;0.84;70.53
77454;BME280;66538;53.150;18.160;2023-04-03T01:09:52;102478.26;;;0.80;70.98
77454;BME280;66538;53.150;18.160;2023-04-03T01:12:28;102477.34;;;0.77;71.11
77454;BME280;66538;53.150;18.160;2023-04-03T01:15:01;102477.70;;;0.73;71.02
77454;BME280;66538;53.150;18.160;2023-04-03T01:17:41;102476.92;;;0.69;71.02
77454;BME280;66538;53.150;18.160;2023-04-03T01:25:24;102476.72;;;0.58;71.14
77454;BME280;66538;53.150;18.160;2023-04-03T01:27:51;102480.63;;;0.54;71.48
77454;BME280;66538;53.150;18.160;2023-04-03T01:30:20;102481.84;;;0.53;72.42
77454;BME280;66538;53.150;18.160;2023-04-03T01:32:47;102484.93;;;0.53;72.01
77454;BME280;66538;53.150;18.160;2023-04-03T01:35:15;102483.99;;;0.51;72.07
77454;BME280;66538;53.150;18.160;2023-04-03T01:37:41;102490.36;;;0.50;72.23
77454;BME280;66538;53.150;18.160;2023-04-03T01:40:08;102488.49;;;0.48;72.07
77454;BME280;66538;53.150;18.160;2023-04-03T01:42:35;102488.91;;;0.47;72.29
77454;BME280;66538;53.150;18.160;2023-04-03T01:45:02;102487.61;;;0.46;72.12
77454;BME280;66538;53.150;18.160;2023-04-03T01:47:29;102492.14;;;0.43;72.53
77454;BME280;66538;53.150;18.160;2023-04-03T01:49:56;102489.42;;;0.42;72.43
77454;BME280;66538;53.150;18.160;2023-04-03T01:52:23;102492.30;;;0.40;71.91
77454;BME280;66538;53.150;18.160;2023-04-03T01:54:51;102491.34;;;0.38;72.27
77454;BME280;66538;53.150;18.160;2023-04-03T01:57:17;102490.89;;;0.35;72.27
77454;BME280;66538;53.150;18.160;2023-04-03T01:59:44;102493.39;;;0.35;72.34
77454;BME280;66538;53.150;18.160;2023-04-03T02:02:11;102492.66;;;0.33;72.72
77454;BME280;66538;53.150;18.160;2023-04-03T02:04:38;102493.52;;;0.34;73.54
77454;BME280;66538;53.150;18.160;2023-04-03T02:07:05;102491.77;;;0.35;73.03
77454;BME280;66538;53.150;18.160;2023-04-03T02:09:33;102494.41;;;0.35;72.82
77454;BME280;66538;53.150;18.160;2023-04-03T02:12:00;102497.20;;;0.34;73.12
77454;BME280;66538;53.150;18.160;2023-04-03T02:14:26;102494.70;;;0.33;72.93
77454;BME280;66538;53.150;18.160;2023-04-03T02:16:54;102495.09;;;0.32;73.11
77454;BME280;66538;53.150;18.160;2023-04-03T02:19:23;102494.60;;;0.30;73.32
77454;BME280;66538;53.150;18.160;2023-04-03T02:21:49;102498.48;;;0.29;72.99
77454;BME280;66538;53.150;18.160;2023-04-03T02:24:16;102500.77;;;0.29;73.60
77454;BME280;66538;53.150;18.160;2023-04-03T02:26:42;102496.16;;;0.29;73.57
77454;BME280;66538;53.150;18.160;2023-04-03T02:29:09;102504.96;;;0.28;73.42
77454;BME280;66538;53.150;18.160;2023-04-03T02:31:36;102502.38;;;0.29;73.46
77454;BME280;66538;53.150;18.160;2023-04-03T02:34:02;102503.62;;;0.29;74.04
77454;BME280;66538;53.150;18.160;2023-04-03T02:36:29;102498.90;;;0.32;73.79
77454;BME280;66538;53.150;18.160;2023-04-03T02:38:58;102503.33;;;0.32;73.96
77454;BME280;66538;53.150;18.160;2023-04-03T02:41:24;102509.41;;;0.33;73.94
77454;BME280;66538;53.150;18.160;2023-04-03T02:43:54;102507.52;;;0.33;74.01
77454;BME280;66538;53.150;18.160;2023-04-03T02:46:21;102506.08;;;0.33;73.73
77454;BME280;66538;53.150;18.160;2023-04-03T02:48:47;102509.25;;;0.33;74.29
77454;BME280;66538;53.150;18.160;2023-04-03T02:51:14;102513.41;;;0.34;74.21
77454;BME280;66538;53.150;18.160;2023-04-03T02:53:41;102515.02;;;0.34;73.94
77454;BME280;66538;53.150;18.160;2023-04-03T02:56:11;102512.92;;;0.34;73.89
77454;BME280;66538;53.150;18.160;2023-04-03T02:58:38;102516.16;;;0.33;73.91
77454;BME280;66538;53.150;18.160;2023-04-03T03:01:05;102515.92;;;0.32;73.88
77454;BME280;66538;53.150;18.160;2023-04-03T03:03:32;102516.77;;;0.31;74.13
77454;BME280;66538;53.150;18.160;2023-04-03T03:06:07;102517.55;;;0.31;74.05
77454;BME280;66538;53.150;18.160;2023-04-03T03:08:34;102521.80;;;0.31;74.01
77454;BME280;66538;53.150;18.160;2023-04-03T03:11:02;102527.52;;;0.30;74.28
77454;BME280;66538;53.150;18.160;2023-04-03T03:13:30;102525.52;;;0.31;74.15
77454;BME280;66538;53.150;18.160;2023-04-03T03:15:57;102528.27;;;0.29;73.97
77454;BME280;66538;53.150;18.160;2023-04-03T03:18:24;102528.23;;;0.25;73.69
77454;BME280;66538;53.150;18.160;2023-04-03T03:20:52;102530.16;;;0.24;74.06
77454;BME280;66538;53.150;18.160;2023-04-03T03:23:21;102536.61;;;0.22;74.60
77454;BME280;66538;53.150;18.160;2023-04-03T03:25:55;102539.13;;;0.22;74.20
77454;BME280;66538;53.150;18.160;2023-04-03T03:28:22;102535.39;;;0.22;74.19
77454;BME280;66538;53.150;18.160;2023-04-03T03:30:49;102533.37;;;0.20;74.18
77454;BME280;66538;53.150;18.160;2023-04-03T03:33:17;102536.10;;;0.18;74.32
77454;BME280;66538;53.150;18.160;2023-04-03T03:35:44;102540.06;;;0.18;74.24
77454;BME280;66538;53.150;18.160;2023-04-03T03:38:12;102540.25;;;0.16;74.45
77454;BME280;66538;53.150;18.160;2023-04-03T03:40:39;102537.33;;;0.15;74.06
77454;BME280;66538;53.150;18.160;2023-04-03T03:43:06;102544.83;;;0.15;74.40
77454;BME280;66538;53.150;18.160;2023-04-03T03:45:33;102547.74;;;0.14;74.53
77454;BME280;66538;53.150;18.160;2023-04-03T03:48:00;102546.58;;;0.10;74.48
77454;BME280;66538;53.150;18.160;2023-04-03T03:50:27;102550.23;;;0.05;74.32
77454;BME280;66538;53.150;18.160;2023-04-03T03:52:54;102552.33;;;0.04;74.32
77454;BME280;66538;53.150;18.160;2023-04-03T03:55:20;102551.26;;;0.00;74.37
77454;BME280;66538;53.150;18.160;2023-04-03T03:57:50;102555.67;;;0.01;74.79
77454;BME280;66538;53.150;18.160;2023-04-03T04:00:18;102557.27;;;0.01;74.96
77454;BME280;66538;53.150;18.160;2023-04-03T04:02:48;102563.16;;;0.04;74.46
77454;BME280;66538;53.150;18.160;2023-04-03T04:05:17;102564.33;;;0.03;74.83
77454;BME280;66538;53.150;18.160;2023-04-03T04:07:44;102563.27;;;0.03;74.50
77454;BME280;66538;53.150;18.160;2023-04-03T04:10:11;102566.59;;;0.07;74.56
77454;BME280;66538;53.150;18.160;2023-04-03T04:12:38;102570.21;;;0.05;74.46
77454;BME280;66538;53.150;18.160;2023-04-03T04:15:05;102574.91;;;0.04;74.12
77454;BME280;66538;53.150;18.160;2023-04-03T04:17:32;102577.77;;;0.03;74.34
77454;BME280;66538;53.150;18.160;2023-04-03T04:19:58;102577.09;;;0.00;74.06
77454;BME280;66538;53.150;18.160;2023-04-03T04:22:25;102574.96;;;-0.04;73.90
77454;BME280;66538;53.150;18.160;2023-04-03T04:24:52;102579.52;;;-0.05;74.03
77454;BME280;66538;53.150;18.160;2023-04-03T04:27:18;102577.24;;;-0.07;74.05
77454;BME280;66538;53.150;18.160;2023-04-03T04:29:45;102585.27;;;-0.07;74.22
77454;BME280;66538;53.150;18.160;2023-04-03T04:32:12;102577.70;;;-0.11;74.33
77454;BME280;66538;53.150;18.160;2023-04-03T04:34:38;102585.00;;;-0.04;74.34
77454;BME280;66538;53.150;18.160;2023-04-03T04:37:05;102583.80;;;-0.03;74.23
77454;BME280;66538;53.150;18.160;2023-04-03T04:39:32;102579.96;;;-0.04;73.86
77454;BME280;66538;53.150;18.160;2023-04-03T04:41:59;102580.45;;;-0.02;74.53
77454;BME280;66538;53.150;18.160;2023-04-03T04:44:27;102585.37;;;0.01;74.62
77454;BME280;66538;53.150;18.160;2023-04-03T04:46:53;102584.30;;;0.06;74.34
77454;BME280;66538;53.150;18.160;2023-04-03T04:49:20;102588.02;;;0.17;74.14
77454;BME280;66538;53.150;18.160;2023-04-03T04:51:47;102592.77;;;0.26;73.90
77454;BME280;66538;53.150;18.160;2023-04-03T04:54:14;102593.30;;;0.35;73.57
77454;BME280;66538;53.150;18.160;2023-04-03T04:56:41;102590.15;;;0.43;73.40
77454;BME280;66538;53.150;18.160;2023-04-03T04:59:08;102593.45;;;0.52;72.98
77454;BME280;66538;53.150;18.160;2023-04-03T05:01:35;102600.49;;;0.58;72.93
77454;BME280;66538;53.150;18.160;2023-04-03T05:04:09;102601.25;;;0.61;72.64
77454;BME280;66538;53.150;18.160;2023-04-03T05:06:35;102603.08;;;0.60;72.29
77454;BME280;66538;53.150;18.160;2023-04-03T05:09:03;102607.45;;;0.66;72.14
77454;BME280;66538;53.150;18.160;2023-04-03T05:11:30;102608.31;;;0.70;71.93
77454;BME280;66538;53.150;18.160;2023-04-03T05:13:57;102607.27;;;0.73;71.90
77454;BME280;66538;53.150;18.160;2023-04-03T05:16:24;102616.06;;;0.81;71.73
77454;BME280;66538;53.150;18.160;2023-04-03T05:18:52;102613.17;;;0.83;71.65
77454;BME280;66538;53.150;18.160;2023-04-03T05:21:20;102616.11;;;0.91;71.44
77454;BME280;66538;53.150;18.160;2023-04-03T05:23:50;102618.66;;;0.99;71.09
77454;BME280;66538;53.150;18.160;2023-04-03T05:26:17;102613.27;;;1.02;70.90
77454;BME280;66538;53.150;18.160;2023-04-03T05:28:46;102616.82;;;1.04;71.08
77454;BME280;66538;53.150;18.160;2023-04-03T05:31:13;102616.95;;;1.05;70.70
77454;BME280;66538;53.150;18.160;2023-04-03T05:33:39;102619.05;;;1.03;70.61
77454;BME280;66538;53.150;18.160;2023-04-03T05:36:08;102617.20;;;1.02;70.63
77454;BME280;66538;53.150;18.160;2023-04-03T05:38:39;102615.98;;;0.98;70.38
77454;BME280;66538;53.150;18.160;2023-04-03T05:41:06;102614.90;;;1.02;70.57
77454;BME280;66538;53.150;18.160;2023-04-03T05:43:33;102620.68;;;1.11;70.04
77454;BME280;66538;53.150;18.160;2023-04-03T05:46:01;102618.80;;;1.17;70.05
77454;BME280;66538;53.150;18.160;2023-04-03T05:48:29;102619.60;;;1.23;69.73
77454;BME280;66538;53.150;18.160;2023-04-03T05:50:55;102623.30;;;1.30;69.54
77454;BME280;66538;53.150;18.160;2023-04-03T05:53:27;102623.89;;;1.36;69.67
77454;BME280;66538;53.150;18.160;2023-04-03T05:55:55;102626.55;;;1.44;69.18
77454;BME280;66538;53.150;18.160;2023-04-03T05:58:22;102622.06;;;1.53;69.32
77454;BME280;66538;53.150;18.160;2023-04-03T06:00:49;102621.25;;;1.62;68.94
77454;BME280;66538;53.150;18.160;2023-04-03T06:03:16;102623.68;;;1.71;68.64
77454;BME280;66538;53.150;18.160;2023-04-03T06:05:43;102627.41;;;1.81;68.44
77454;BME280;66538;53.150;18.160;2023-04-03T06:08:11;102627.08;;;1.89;67.90
77454;BME280;66538;53.150;18.160;2023-04-03T06:10:38;102627.92;;;1.97;68.06
77454;BME280;66538;53.150;18.160;2023-04-03T06:13:06;102626.96;;;2.06;67.82
77454;BME280;66538;53.150;18.160;2023-04-03T06:15:33;102632.52;;;2.17;67.74
77454;BME280;66538;53.150;18.160;2023-04-03T06:18:01;102633.80;;;2.24;67.11
77454;BME280;66538;53.150;18.160;2023-04-03T06:20:27;102629.81;;;2.31;67.40
77454;BME280;66538;53.150;18.160;2023-04-03T06:22:54;102632.70;;;2.38;66.44
77454;BME280;66538;53.150;18.160;2023-04-03T06:25:21;102636.60;;;2.42;66.30
77454;BME280;66538;53.150;18.160;2023-04-03T06:27:48;102638.13;;;2.48;66.54
77454;BME280;66538;53.150;18.160;2023-04-03T06:30:14;102641.92;;;2.51;65.27
77454;BME280;66538;53.150;18.160;2023-04-03T06:32:41;102643.22;;;2.57;65.75
77454;BME280;66538;53.150;18.160;2023-04-03T06:35:09;102645.29;;;2.65;65.42
77454;BME280;66538;53.150;18.160;2023-04-03T06:37:37;102651.54;;;2.71;64.54
77454;BME280;66538;53.150;18.160;2023-04-03T06:40:04;102647.56;;;2.69;64.37
77454;BME280;66538;53.150;18.160;2023-04-03T06:42:31;102648.83;;;2.69;64.71
77454;BME280;66538;53.150;18.160;2023-04-03T06:45:04;102646.55;;;2.68;64.66
77454;BME280;66538;53.150;18.160;2023-04-03T06:47:31;102648.89;;;2.71;64.21
77454;BME280;66538;53.150;18.160;2023-04-03T06:49:58;102653.85;;;2.75;63.90
77454;BME280;66538;53.150;18.160;2023-04-03T06:52:24;102653.94;;;2.82;63.66
77454;BME280;66538;53.150;18.160;2023-04-03T06:54:51;102654.84;;;2.93;63.65
77454;BME280;66538;53.150;18.160;2023-04-03T06:57:23;102660.68;;;3.03;63.26
77454;BME280;66538;53.150;18.160;2023-04-03T06:59:50;102665.25;;;3.22;62.66
77454;BME280;66538;53.150;18.160;2023-04-03T07:02:17;102665.74;;;3.41;61.70
77454;BME280;66538;53.150;18.160;2023-04-03T07:04:45;102669.77;;;3.64;60.35
77454;BME280;66538;53.150;18.160;2023-04-03T07:07:11;102670.02;;;3.89;60.69
77454;BME280;66538;53.150;18.160;2023-04-03T07:09:38;102669.54;;;4.05;58.70
77454;BME280;66538;53.150;18.160;2023-04-03T07:12:05;102679.77;;;4.24;58.89
77454;BME280;66538;53.150;18.160;2023-04-03T07:14:31;102682.68;;;4.43;57.47
77454;BME280;66538;53.150;18.160;2023-04-03T07:16:58;102677.17;;;4.65;56.82
77454;BME280;66538;53.150;18.160;2023-04-03T07:19:24;102676.06;;;4.86;55.85
77454;BME280;66538;53.150;18.160;2023-04-03T07:21:54;102678.23;;;4.95;53.68
77454;BME280;66538;53.150;18.160;2023-04-03T07:24:21;102679.58;;;4.97;53.91
77454;BME280;66538;53.150;18.160;2023-04-03T07:26:52;102690.41;;;4.98;53.37
77454;BME280;66538;53.150;18.160;2023-04-03T07:29:19;102691.23;;;5.01;54.05
77454;BME280;66538;53.150;18.160;2023-04-03T07:31:47;102688.45;;;5.09;54.05
77454;BME280;66538;53.150;18.160;2023-04-03T07:34:14;102690.17;;;5.19;53.41
77454;BME280;66538;53.150;18.160;2023-04-03T07:36:41;102695.89;;;5.19;51.67
77454;BME280;66538;53.150;18.160;2023-04-03T07:39:07;102693.67;;;5.12;50.60
77454;BME280;66538;53.150;18.160;2023-04-03T07:41:34;102695.95;;;5.05;50.79
77454;BME280;66538;53.150;18.160;2023-04-03T07:44:01;102694.65;;;5.00;50.77
77454;BME280;66538;53.150;18.160;2023-04-03T07:46:28;102701.59;;;4.99;50.76
77454;BME280;66538;53.150;18.160;2023-04-03T07:48:55;102700.38;;;4.90;48.69
77454;BME280;66538;53.150;18.160;2023-04-03T07:51:22;102705.80;;;4.77;49.30
77454;BME280;66538;53.150;18.160;2023-04-03T07:53:48;102708.96;;;4.68;50.11
77454;BME280;66538;53.150;18.160;2023-04-03T07:56:16;102713.23;;;4.63;49.80
77454;BME280;66538;53.150;18.160;2023-04-03T07:58:43;102710.10;;;4.60;49.42
77454;BME280;66538;53.150;18.160;2023-04-03T08:01:10;102714.00;;;4.60;50.02
77454;BME280;66538;53.150;18.160;2023-04-03T08:03:36;102709.91;;;4.58;48.44
77454;BME280;66538;53.150;18.160;2023-04-03T08:06:06;102704.45;;;4.56;48.96
77454;BME280;66538;53.150;18.160;2023-04-03T08:08:33;102709.81;;;4.47;48.24
77454;BME280;66538;53.150;18.160;2023-04-03T08:11:00;102713.64;;;4.49;48.96
77454;BME280;66538;53.150;18.160;2023-04-03T08:13:29;102712.27;;;4.46;48.45
77454;BME280;66538;53.150;18.160;2023-04-03T08:15:57;102715.52;;;4.43;49.26
77454;BME280;66538;53.150;18.160;2023-04-03T08:18:25;102706.95;;;4.40;49.13
77454;BME280;66538;53.150;18.160;2023-04-03T08:20:53;102714.75;;;4.42;49.50
77454;BME280;66538;53.150;18.160;2023-04-03T08:23:19;102711.84;;;4.45;49.17
77454;BME280;66538;53.150;18.160;2023-04-03T08:25:46;102716.05;;;4.42;48.77
77454;BME280;66538;53.150;18.160;2023-04-03T08:28:13;102713.91;;;4.37;48.31
77454;BME280;66538;53.150;18.160;2023-04-03T08:30:40;102713.84;;;4.39;48.50
77454;BME280;66538;53.150;18.160;2023-04-03T08:33:09;102713.00;;;4.43;48.78
77454;BME280;66538;53.150;18.160;2023-04-03T08:35:40;102715.83;;;4.43;47.28
77454;BME280;66538;53.150;18.160;2023-04-03T08:38:08;102714.90;;;4.45;46.69
77454;BME280;66538;53.150;18.160;2023-04-03T08:40:35;102716.27;;;4.46;46.60
77454;BME280;66538;53.150;18.160;2023-04-03T08:43:43;102725.16;;;4.52;47.43
77454;BME280;66538;53.150;18.160;2023-04-03T08:46:05;102720.60;;;4.59;46.89
77454;BME280;66538;53.150;18.160;2023-04-03T08:48:35;102726.56;;;4.64;45.95
77454;BME280;66538;53.150;18.160;2023-04-03T08:51:06;102716.11;;;4.62;46.70
77454;BME280;66538;53.150;18.160;2023-04-03T08:53:43;102722.34;;;4.74;47.60
77454;BME280;66538;53.150;18.160;2023-04-03T08:56:13;102719.70;;;4.84;47.37
77454;BME280;66538;53.150;18.160;2023-04-03T08:58:50;102720.64;;;4.99;47.11
77454;BME280;66538;53.150;18.160;2023-04-03T09:01:38;102719.90;;;5.10;45.53
77454;BME280;66538;53.150;18.160;2023-04-03T09:04:12;102717.39;;;5.10;46.45
77454;BME280;66538;53.150;18.160;2023-04-03T09:06:56;102718.95;;;5.18;45.04
77454;BME280;66538;53.150;18.160;2023-04-03T09:09:38;102710.91;;;5.32;46.34
77454;BME280;66538;53.150;18.160;2023-04-03T09:12:23;102716.09;;;5.59;46.01
77454;BME280;66538;53.150;18.160;2023-04-03T09:20:15;102717.86;;;5.77;43.28
77454;BME280;66538;53.150;18.160;2023-04-03T09:22:44;102717.84;;;5.84;43.77
77454;BME280;66538;53.150;18.160;2023-04-03T09:25:34;102717.41;;;5.96;44.47
77454;BME280;66538;53.150;18.160;2023-04-03T09:28:04;102722.28;;;6.16;44.28
77454;BME280;66538;53.150;18.160;2023-04-03T09:30:36;102714.77;;;6.20;43.27
77454;BME280;66538;53.150;18.160;2023-04-03T09:33:04;102718.16;;;6.30;44.10
77454;BME280;66538;53.150;18.160;2023-04-03T09:35:34;102710.09;;;6.46;43.76
77454;BME280;66538;53.150;18.160;2023-04-03T09:38:18;102709.92;;;6.67;42.83
77454;BME280;66538;53.150;18.160;2023-04-03T09:40:47;102705.79;;;6.86;41.53
77454;BME280;66538;53.150;18.160;2023-04-03T09:43:27;102703.48;;;7.06;42.23
77454;BME280;66538;53.150;18.160;2023-04-03T09:45:56;102694.38;;;7.24;40.81
77454;BME280;66538;53.150;18.160;2023-04-03T09:48:59;102698.98;;;7.36;41.24
77454;BME280;66538;53.150;18.160;2023-04-03T09:51:28;102702.20;;;7.45;41.28
77454;BME280;66538;53.150;18.160;2023-04-03T09:53:55;102707.70;;;7.34;40.94
77454;BME280;66538;53.150;18.160;2023-04-03T09:56:25;102706.27;;;7.20;41.67
77454;BME280;66538;53.150;18.160;2023-04-03T10:01:32;102698.01;;;7.33;42.57
77454;BME280;66538;53.150;18.160;2023-04-03T10:04:17;102696.64;;;7.48;41.62
77454;BME280;66538;53.150;18.160;2023-04-03T10:12:08;102701.95;;;6.99;42.62
77454;BME280;66538;53.150;18.160;2023-04-03T10:14:53;102701.86;;;7.12;42.29
77454;BME280;66538;53.150;18.160;2023-04-03T10:20:34;102699.20;;;7.38;40.62
77454;BME280;66538;53.150;18.160;2023-04-03T10:23:24;102697.66;;;7.28;39.76
77454;BME280;66538;53.150;18.160;2023-04-03T10:34:23;102699.52;;;6.97;40.75
77454;BME280;66538;53.150;18.160;2023-04-03T10:37:16;102699.42;;;6.90;41.10
77454;BME280;66538;53.150;18.160;2023-04-03T10:40:01;102701.31;;;6.93;40.90
77454;BME280;66538;53.150;18.160;2023-04-03T10:42:50;102700.02;;;7.14;41.15
77454;BME280;66538;53.150;18.160;2023-04-03T10:45:24;102699.61;;;7.43;40.56
77454;BME280;66538;53.150;18.160;2023-04-03T10:48:02;102701.73;;;7.42;39.78
77454;BME280;66538;53.150;18.160;2023-04-03T10:50:44;102698.36;;;7.36;39.95
77454;BME280;66538;53.150;18.160;2023-04-03T11:01:59;102693.83;;;7.27;39.95
77454;BME280;66538;53.150;18.160;2023-04-03T11:04:29;102697.27;;;7.33;40.33
77454;BME280;66538;53.150;18.160;2023-04-03T11:07:16;102697.23;;;7.42;40.04
77454;BME280;66538;53.150;18.160;2023-04-03T11:09:46;102697.39;;;7.58;40.16
77454;BME280;66538;53.150;18.160;2023-04-03T11:12:23;102692.77;;;7.78;39.76
77454;BME280;66538;53.150;18.160;2023-04-03T11:14:52;102686.45;;;7.87;39.40
77454;BME280;66538;53.150;18.160;2023-04-03T11:23:05;102679.66;;;8.15;38.51
77454;BME280;66538;53.150;18.160;2023-04-03T11:25:33;102677.53;;;8.13;38.18
77454;BME280;66538;53.150;18.160;2023-04-03T11:28:04;102676.30;;;8.05;37.90
77454;BME280;66538;53.150;18.160;2023-04-03T11:36:05;102660.05;;;8.12;38.48
77454;BME280;66538;53.150;18.160;2023-04-03T11:38:37;102657.33;;;8.40;38.20
77454;BME280;66538;53.150;18.160;2023-04-03T11:41:08;102663.66;;;8.59;37.80
77454;BME280;66538;53.150;18.160;2023-04-03T11:44:14;102664.52;;;8.84;37.79
77454;BME280;66538;53.150;18.160;2023-04-03T11:46:58;102660.15;;;9.09;37.63
77454;BME280;66538;53.150;18.160;2023-04-03T12:08:27;102653.40;;;8.89;37.12
77454;BME280;66538;53.150;18.160;2023-04-03T12:11:24;102649.40;;;8.85;36.91
77454;BME280;66538;53.150;18.160;2023-04-03T12:19:27;102648.89;;;8.54;37.12
77454;BME280;66538;53.150;18.160;2023-04-03T12:24:32;102654.73;;;8.28;37.26
77454;BME280;66538;53.150;18.160;2023-04-03T12:27:40;102648.05;;;8.08;37.31
77454;BME280;66538;53.150;18.160;2023-04-03T12:30:06;102638.44;;;9.73;36.00
77454;BME280;66538;53.150;18.160;2023-04-03T12:32:51;102633.21;;;10.62;34.93
77454;BME280;66538;53.150;18.160;2023-04-03T12:35:37;102630.34;;;10.55;34.79
77454;BME280;66538;53.150;18.160;2023-04-03T12:38:25;102641.27;;;9.96;35.05
77454;BME280;66538;53.150;18.160;2023-04-03T12:46:38;102634.65;;;8.83;36.50
77454;BME280;66538;53.150;18.160;2023-04-03T12:49:22;102628.89;;;10.52;34.72
77454;BME280;66538;53.150;18.160;2023-04-03T12:51:51;102629.17;;;11.73;34.11
77454;BME280;66538;53.150;18.160;2023-04-03T12:54:27;102628.71;;;11.50;32.85
77454;BME280;66538;53.150;18.160;2023-04-03T12:57:17;102626.02;;;11.16;33.42
77454;BME280;66538;53.150;18.160;2023-04-03T12:59:44;102629.84;;;10.95;33.26
77454;BME280;66538;53.150;18.160;2023-04-03T13:02:33;102624.26;;;10.94;32.82
77454;BME280;66538;53.150;18.160;2023-04-03T13:05:09;102622.67;;;10.63;33.40
77454;BME280;66538;53.150;18.160;2023-04-03T13:07:40;102624.81;;;10.57;33.95
77454;BME280;66538;53.150;18.160;2023-04-03T13:15:30;102624.74;;;9.97;34.45
77454;BME280;66538;53.150;18.160;2023-04-03T13:17:57;102626.70;;;9.82;35.23
77454;BME280;66538;53.150;18.160;2023-04-03T13:20:27;102621.56;;;9.69;35.03
77454;BME280;66538;53.150;18.160;2023-04-03T13:23:04;102621.65;;;9.52;35.82
77454;BME280;66538;53.150;18.160;2023-04-03T13:25:35;102621.65;;;9.31;35.69
77454;BME280;66538;53.150;18.160;2023-04-03T13:28:04;102624.34;;;9.09;35.81
77454;BME280;66538;53.150;18.160;2023-04-03T13:30:34;102621.98;;;9.47;35.78
77454;BME280;66538;53.150;18.160;2023-04-03T13:33:05;102615.29;;;11.21;34.69
77454;BME280;66538;53.150;18.160;2023-04-03T13:35:39;102611.75;;;11.17;34.61
77454;BME280;66538;53.150;18.160;2023-04-03T13:38:24;102615.66;;;10.83;33.69
77454;BME280;66538;53.150;18.160;2023-04-03T13:40:57;102616.40;;;10.72;34.53
77454;BME280;66538;53.150;18.160;2023-04-03T13:43:30;102619.37;;;10.29;35.41
77454;BME280;66538;53.150;18.160;2023-04-03T13:48:44;102626.56;;;9.33;38.08
77454;BME280;66538;53.150;18.160;2023-04-03T13:53:48;102624.42;;;9.24;38.62
77454;BME280;66538;53.150;18.160;2023-04-03T14:02:05;102607.61;;;14.37;32.50
77454;BME280;66538;53.150;18.160;2023-04-03T14:04:54;102605.69;;;13.75;32.36
77454;BME280;66538;53.150;18.160;2023-04-03T14:07:25;102604.29;;;13.04;32.43
77454;BME280;66538;53.150;18.160;2023-04-03T14:09:52;102606.62;;;12.44;32.77
77454;BME280;66538;53.150;18.160;2023-04-03T14:12:35;102609.74;;;11.95;33.39
77454;BME280;66538;53.150;18.160;2023-04-03T14:15:27;102601.66;;;13.14;31.52
77454;BME280;66538;53.150;18.160;2023-04-03T14:17:52;102597.46;;;14.21;31.02
77454;BME280;66538;53.150;18.160;2023-04-03T14:20:22;102595.77;;;14.77;30.35
77454;BME280;66538;53.150;18.160;2023-04-03T14:22:49;102595.70;;;15.75;28.94
77454;BME280;66538;53.150;18.160;2023-04-03T14:25:23;102602.15;;;14.37;29.12
77454;BME280;66538;53.150;18.160;2023-04-03T14:27:53;102600.70;;;13.15;30.02
77454;BME280;66538;53.150;18.160;2023-04-03T14:30:24;102603.30;;;12.72;30.09
77454;BME280;66538;53.150;18.160;2023-04-03T14:32:52;102602.77;;;15.03;28.36
77454;BME280;66538;53.150;18.160;2023-04-03T14:35:19;102594.52;;;17.03;27.15
77454;BME280;66538;53.150;18.160;2023-04-03T14:37:47;102590.58;;;18.86;25.21
77454;BME280;66538;53.150;18.160;2023-04-03T14:40:20;102581.17;;;20.36;23.47
77454;BME280;66538;53.150;18.160;2023-04-03T14:42:46;102573.92;;;21.79;22.33
77454;BME280;66538;53.150;18.160;2023-04-03T14:45:15;102579.44;;;22.76;20.21